sensor_id;sensor_type;location;lat;lon;timestamp;temperature;humidity
8684;DHT22;4379;59.744;18.206;2023-08-01T00:01:49;12.10;99.90
8684;DHT22;4379;59.744;18.206;2023-08-01T00:04:16;12.20;99.90
8684;DHT22;4379;59.744;18.206;2023-08-01T00:06:44;12.20;99.90
8684;DHT22;4379;59.744;18.206;2023-08-01T00:09:11;12.20;99.90
8684;DHT22;4379;59.744;18.206;2023-08-01T00:11:39;12.20;99.90
8684;DHT22;4379;59.744;18.206;2023-08-01T00:14:06;12.20;99.90
8684;DHT22;4379;59.744;18.206;2023-08-01T00:16:33;12.30;99.90
8684;DHT22;4379;59.744;18.206;2023-08-01T00:19:02;12.30;99.90
8684;DHT22;4379;59.744;18.206;2023-08-01T00:21:29;12.30;99.90
8684;DHT22;4379;59.744;18.206;2023-08-01T00:23:59;12.30;99.90
8684;DHT22;4379;59.744;18.206;2023-08-01T00:26:26;12.40;99.90
8684;DHT22;4379;59.744;18.206;2023-08-01T00:28:54;12.40;99.90
8684;DHT22;4379;59.744;18.206;2023-08-01T00:31:21;12.40;99.90
8684;DHT22;4379;59.744;18.206;2023-08-01T00:33:49;12.30;99.90
8684;DHT22;4379;59.744;18.206;2023-08-01T00:36:16;12.30;99.90
8684;DHT22;4379;59.744;18.206;2023-08-01T00:38:45;12.30;99.90
8684;DHT22;4379;59.744;18.206;2023-08-01T00:41:13;12.30;99.90
8684;DHT22;4379;59.744;18.206;2023-08-01T00:43:40;12.30;99.90
8684;DHT22;4379;59.744;18.206;2023-08-01T00:46:08;12.40;99.90
8684;DHT22;4379;59.744;18.206;2023-08-01T00:48:36;12.40;99.90
8684;DHT22;4379;59.744;18.206;2023-08-01T00:51:05;12.40;99.90
8684;DHT22;4379;59.744;18.206;2023-08-01T00:53:34;12.40;99.90
8684;DHT22;4379;59.744;18.206;2023-08-01T00:56:03;12.40;99.90
8684;DHT22;4379;59.744;18.206;2023-08-01T00:58:31;12.40;99.90
8684;DHT22;4379;59.744;18.206;2023-08-01T01:00:58;12.40;99.90
8684;DHT22;4379;59.744;18.206;2023-08-01T01:03:28;12.50;99.90
8684;DHT22;4379;59.744;18.206;2023-08-01T01:08:38;12.60;99.90
8684;DHT22;4379;59.744;18.206;2023-08-01T01:11:05;12.50;99.90
8684;DHT22;4379;59.744;18.206;2023-08-01T01:13:33;12.60;99.90
8684;DHT22;4379;59.744;18.206;2023-08-01T01:16:00;12.60;99.90
8684;DHT22;4379;59.744;18.206;2023-08-01T01:18:28;12.60;99.90
8684;DHT22;4379;59.744;18.206;2023-08-01T01:20:55;12.70;99.90
8684;DHT22;4379;59.744;18.206;2023-08-01T01:23:24;12.60;99.90
8684;DHT22;4379;59.744;18.206;2023-08-01T01:25:54;12.60;99.90
8684;DHT22;4379;59.744;18.206;2023-08-01T01:28:23;12.50;99.90
8684;DHT22;4379;59.744;18.206;2023-08-01T01:30:52;12.50;99.90
8684;DHT22;4379;59.744;18.206;2023-08-01T01:33:20;12.50;99.90
8684;DHT22;4379;59.744;18.206;2023-08-01T01:35:48;12.40;99.90
8684;DHT22;4379;59.744;18.206;2023-08-01T01:38:16;12.40;99.90
8684;DHT22;4379;59.744;18.206;2023-08-01T01:40:44;12.40;99.90
8684;DHT22;4379;59.744;18.206;2023-08-01T01:43:11;12.30;99.90
8684;DHT22;4379;59.744;18.206;2023-08-01T01:45:39;12.30;99.90
8684;DHT22;4379;59.744;18.206;2023-08-01T01:48:06;12.40;99.90
8684;DHT22;4379;59.744;18.206;2023-08-01T01:50:34;12.40;99.90
8684;DHT22;4379;59.744;18.206;2023-08-01T01:53:01;12.50;99.90
8684;DHT22;4379;59.744;18.206;2023-08-01T01:55:29;12.60;99.90
8684;DHT22;4379;59.744;18.206;2023-08-01T01:57:56;12.60;99.90
8684;DHT22;4379;59.744;18.206;2023-08-01T02:00:23;12.60;99.90
8684;DHT22;4379;59.744;18.206;2023-08-01T02:02:51;12.50;99.90
8684;DHT22;4379;59.744;18.206;2023-08-01T02:05:18;12.50;99.90
8684;DHT22;4379;59.744;18.206;2023-08-01T02:07:46;12.50;99.90
8684;DHT22;4379;59.744;18.206;2023-08-01T02:10:13;12.50;99.90
8684;DHT22;4379;59.744;18.206;2023-08-01T02:12:41;12.40;99.90
8684;DHT22;4379;59.744;18.206;2023-08-01T02:15:09;12.40;99.90
8684;DHT22;4379;59.744;18.206;2023-08-01T02:17:36;12.30;99.90
8684;DHT22;4379;59.744;18.206;2023-08-01T02:20:04;12.30;99.90
8684;DHT22;4379;59.744;18.206;2023-08-01T02:22:33;12.20;99.90
8684;DHT22;4379;59.744;18.206;2023-08-01T02:25:00;12.10;99.90
8684;DHT22;4379;59.744;18.206;2023-08-01T02:27:28;12.10;99.90
8684;DHT22;4379;59.744;18.206;2023-08-01T02:29:55;12.00;99.90
8684;DHT22;4379;59.744;18.206;2023-08-01T02:32:23;12.00;99.90
8684;DHT22;4379;59.744;18.206;2023-08-01T02:34:50;12.00;99.90
8684;DHT22;4379;59.744;18.206;2023-08-01T02:37:18;11.90;99.90
8684;DHT22;4379;59.744;18.206;2023-08-01T02:39:45;11.90;99.90
8684;DHT22;4379;59.744;18.206;2023-08-01T02:42:13;11.80;99.90
8684;DHT22;4379;59.744;18.206;2023-08-01T02:44:40;11.90;99.90
8684;DHT22;4379;59.744;18.206;2023-08-01T02:47:08;12.00;99.90
8684;DHT22;4379;59.744;18.206;2023-08-01T02:49:35;11.90;99.90
8684;DHT22;4379;59.744;18.206;2023-08-01T02:52:03;11.80;99.90
8684;DHT22;4379;59.744;18.206;2023-08-01T02:54:30;11.80;99.90
8684;DHT22;4379;59.744;18.206;2023-08-01T02:56:58;11.70;99.90
8684;DHT22;4379;59.744;18.206;2023-08-01T02:59:26;11.60;99.90
8684;DHT22;4379;59.744;18.206;2023-08-01T03:01:53;11.60;99.90
8684;DHT22;4379;59.744;18.206;2023-08-01T03:04:21;11.60;99.90
8684;DHT22;4379;59.744;18.206;2023-08-01T03:07:06;11.50;99.90
8684;DHT22;4379;59.744;18.206;2023-08-01T03:09:34;11.50;99.90
8684;DHT22;4379;59.744;18.206;2023-08-01T03:12:02;11.40;99.90
8684;DHT22;4379;59.744;18.206;2023-08-01T03:14:29;11.40;99.90
8684;DHT22;4379;59.744;18.206;2023-08-01T03:16:57;11.60;99.90
8684;DHT22;4379;59.744;18.206;2023-08-01T03:19:24;11.60;99.90
8684;DHT22;4379;59.744;18.206;2023-08-01T03:21:52;11.60;99.90
8684;DHT22;4379;59.744;18.206;2023-08-01T03:24:19;11.60;99.90
8684;DHT22;4379;59.744;18.206;2023-08-01T03:26:47;11.60;99.90
8684;DHT22;4379;59.744;18.206;2023-08-01T03:29:14;11.60;99.90
8684;DHT22;4379;59.744;18.206;2023-08-01T03:31:41;11.60;99.90
8684;DHT22;4379;59.744;18.206;2023-08-01T03:34:09;11.70;99.90
8684;DHT22;4379;59.744;18.206;2023-08-01T03:36:37;11.80;99.90
8684;DHT22;4379;59.744;18.206;2023-08-01T03:39:04;11.90;99.90
8684;DHT22;4379;59.744;18.206;2023-08-01T03:41:32;11.90;99.90
8684;DHT22;4379;59.744;18.206;2023-08-01T03:44:00;12.00;99.90
8684;DHT22;4379;59.744;18.206;2023-08-01T03:46:27;12.00;99.90
8684;DHT22;4379;59.744;18.206;2023-08-01T03:48:55;12.20;99.90
8684;DHT22;4379;59.744;18.206;2023-08-01T03:51:22;12.10;99.90
8684;DHT22;4379;59.744;18.206;2023-08-01T03:53:50;12.10;99.90
8684;DHT22;4379;59.744;18.206;2023-08-01T03:56:33;12.20;99.90
8684;DHT22;4379;59.744;18.206;2023-08-01T03:59:01;12.20;99.90
8684;DHT22;4379;59.744;18.206;2023-08-01T04:01:32;12.40;99.90
8684;DHT22;4379;59.744;18.206;2023-08-01T04:03:59;12.40;99.90
8684;DHT22;4379;59.744;18.206;2023-08-01T04:06:27;12.40;99.90
8684;DHT22;4379;59.744;18.206;2023-08-01T04:08:54;12.30;99.90
8684;DHT22;4379;59.744;18.206;2023-08-01T04:11:23;12.40;99.90
8684;DHT22;4379;59.744;18.206;2023-08-01T04:13:51;12.60;99.90
8684;DHT22;4379;59.744;18.206;2023-08-01T04:16:19;12.70;99.90
8684;DHT22;4379;59.744;18.206;2023-08-01T04:18:47;13.00;99.90
8684;DHT22;4379;59.744;18.206;2023-08-01T04:21:15;13.20;99.90
8684;DHT22;4379;59.744;18.206;2023-08-01T04:23:42;13.30;99.90
8684;DHT22;4379;59.744;18.206;2023-08-01T04:26:10;13.30;99.90
8684;DHT22;4379;59.744;18.206;2023-08-01T04:28:37;13.50;99.90
8684;DHT22;4379;59.744;18.206;2023-08-01T04:31:05;13.70;99.90
8684;DHT22;4379;59.744;18.206;2023-08-01T04:33:32;13.80;99.90
8684;DHT22;4379;59.744;18.206;2023-08-01T04:36:00;13.90;99.90
8684;DHT22;4379;59.744;18.206;2023-08-01T04:38:27;14.10;99.90
8684;DHT22;4379;59.744;18.206;2023-08-01T04:40:55;14.30;99.90
8684;DHT22;4379;59.744;18.206;2023-08-01T04:43:22;14.40;99.90
8684;DHT22;4379;59.744;18.206;2023-08-01T04:45:50;14.60;99.90
8684;DHT22;4379;59.744;18.206;2023-08-01T04:48:18;15.00;99.90
8684;DHT22;4379;59.744;18.206;2023-08-01T04:50:45;15.00;99.90
8684;DHT22;4379;59.744;18.206;2023-08-01T04:53:13;15.30;99.90
8684;DHT22;4379;59.744;18.206;2023-08-01T04:55:40;15.10;99.90
8684;DHT22;4379;59.744;18.206;2023-08-01T04:58:08;15.60;99.90
8684;DHT22;4379;59.744;18.206;2023-08-01T05:00:38;16.40;99.90
8684;DHT22;4379;59.744;18.206;2023-08-01T05:03:07;16.60;99.90
8684;DHT22;4379;59.744;18.206;2023-08-01T05:05:35;16.20;99.90
8684;DHT22;4379;59.744;18.206;2023-08-01T05:08:02;16.40;99.90
8684;DHT22;4379;59.744;18.206;2023-08-01T05:10:30;16.10;99.90
8684;DHT22;4379;59.744;18.206;2023-08-01T05:12:57;16.10;99.90
8684;DHT22;4379;59.744;18.206;2023-08-01T05:15:25;15.90;99.90
8684;DHT22;4379;59.744;18.206;2023-08-01T05:17:54;15.90;99.90
8684;DHT22;4379;59.744;18.206;2023-08-01T05:20:23;15.90;99.90
8684;DHT22;4379;59.744;18.206;2023-08-01T05:22:50;16.10;99.90
8684;DHT22;4379;59.744;18.206;2023-08-01T05:25:22;16.10;99.90
8684;DHT22;4379;59.744;18.206;2023-08-01T05:27:49;16.30;99.90
8684;DHT22;4379;59.744;18.206;2023-08-01T05:30:17;16.60;99.90
8684;DHT22;4379;59.744;18.206;2023-08-01T05:32:47;16.80;99.90
8684;DHT22;4379;59.744;18.206;2023-08-01T05:35:15;17.70;99.90
8684;DHT22;4379;59.744;18.206;2023-08-01T05:37:43;18.40;99.90
8684;DHT22;4379;59.744;18.206;2023-08-01T05:40:11;19.20;99.90
8684;DHT22;4379;59.744;18.206;2023-08-01T05:42:38;18.80;99.90
8684;DHT22;4379;59.744;18.206;2023-08-01T05:45:06;18.20;99.90
8684;DHT22;4379;59.744;18.206;2023-08-01T05:47:34;18.30;99.90
8684;DHT22;4379;59.744;18.206;2023-08-01T05:50:04;17.60;99.90
8684;DHT22;4379;59.744;18.206;2023-08-01T05:52:31;17.60;99.90
8684;DHT22;4379;59.744;18.206;2023-08-01T05:54:59;18.00;99.90
8684;DHT22;4379;59.744;18.206;2023-08-01T05:57:27;19.80;99.90
8684;DHT22;4379;59.744;18.206;2023-08-01T05:59:54;21.30;99.90
8684;DHT22;4379;59.744;18.206;2023-08-01T06:02:23;22.90;99.90
8684;DHT22;4379;59.744;18.206;2023-08-01T06:04:51;21.80;99.90
8684;DHT22;4379;59.744;18.206;2023-08-01T06:07:19;23.00;99.90
8684;DHT22;4379;59.744;18.206;2023-08-01T06:09:51;23.50;99.90
8684;DHT22;4379;59.744;18.206;2023-08-01T06:12:21;22.80;99.90
8684;DHT22;4379;59.744;18.206;2023-08-01T06:14:49;22.30;99.90
8684;DHT22;4379;59.744;18.206;2023-08-01T06:17:18;20.20;99.90
8684;DHT22;4379;59.744;18.206;2023-08-01T06:19:51;19.50;99.90
8684;DHT22;4379;59.744;18.206;2023-08-01T06:22:24;21.20;99.90
8684;DHT22;4379;59.744;18.206;2023-08-01T06:24:53;21.00;99.90
8684;DHT22;4379;59.744;18.206;2023-08-01T06:27:21;22.20;99.90
8684;DHT22;4379;59.744;18.206;2023-08-01T06:29:49;21.80;99.90
8684;DHT22;4379;59.744;18.206;2023-08-01T06:32:21;20.60;99.90
8684;DHT22;4379;59.744;18.206;2023-08-01T06:34:53;19.50;99.90
8684;DHT22;4379;59.744;18.206;2023-08-01T06:37:22;19.30;99.90
8684;DHT22;4379;59.744;18.206;2023-08-01T06:39:51;18.70;99.90
8684;DHT22;4379;59.744;18.206;2023-08-01T06:42:19;18.50;99.90
8684;DHT22;4379;59.744;18.206;2023-08-01T06:44:49;20.00;99.90
8684;DHT22;4379;59.744;18.206;2023-08-01T06:47:57;21.10;99.90
8684;DHT22;4379;59.744;18.206;2023-08-01T06:50:25;23.20;99.90
8684;DHT22;4379;59.744;18.206;2023-08-01T06:52:53;22.70;99.90
8684;DHT22;4379;59.744;18.206;2023-08-01T06:55:22;22.70;99.90
8684;DHT22;4379;59.744;18.206;2023-08-01T06:57:51;23.40;99.90
8684;DHT22;4379;59.744;18.206;2023-08-01T07:00:19;24.90;99.90
8684;DHT22;4379;59.744;18.206;2023-08-01T07:02:48;25.40;99.90
8684;DHT22;4379;59.744;18.206;2023-08-01T07:05:16;25.80;99.90
8684;DHT22;4379;59.744;18.206;2023-08-01T07:07:43;24.10;99.90
8684;DHT22;4379;59.744;18.206;2023-08-01T07:10:11;22.20;99.90
8684;DHT22;4379;59.744;18.206;2023-08-01T07:12:38;21.60;99.90
8684;DHT22;4379;59.744;18.206;2023-08-01T07:15:06;20.40;99.90
8684;DHT22;4379;59.744;18.206;2023-08-01T07:17:34;20.50;99.90
8684;DHT22;4379;59.744;18.206;2023-08-01T07:20:02;20.60;99.90
8684;DHT22;4379;59.744;18.206;2023-08-01T07:22:30;20.50;99.90
8684;DHT22;4379;59.744;18.206;2023-08-01T07:24:57;20.10;99.90
8684;DHT22;4379;59.744;18.206;2023-08-01T07:27:25;19.70;99.90
8684;DHT22;4379;59.744;18.206;2023-08-01T07:29:53;20.40;99.90
8684;DHT22;4379;59.744;18.206;2023-08-01T07:32:21;20.20;99.90
8684;DHT22;4379;59.744;18.206;2023-08-01T07:34:48;20.70;99.90
8684;DHT22;4379;59.744;18.206;2023-08-01T07:37:16;21.00;99.90
8684;DHT22;4379;59.744;18.206;2023-08-01T07:39:43;20.80;99.90
8684;DHT22;4379;59.744;18.206;2023-08-01T07:42:11;20.80;99.90
8684;DHT22;4379;59.744;18.206;2023-08-01T07:44:38;20.90;99.90
8684;DHT22;4379;59.744;18.206;2023-08-01T07:47:06;20.40;99.90
8684;DHT22;4379;59.744;18.206;2023-08-01T07:49:33;20.40;99.90
8684;DHT22;4379;59.744;18.206;2023-08-01T07:52:01;20.40;99.90
8684;DHT22;4379;59.744;18.206;2023-08-01T07:54:28;20.20;99.90
8684;DHT22;4379;59.744;18.206;2023-08-01T07:56:56;20.50;99.90
8684;DHT22;4379;59.744;18.206;2023-08-01T07:59:23;20.30;99.90
8684;DHT22;4379;59.744;18.206;2023-08-01T08:01:51;19.10;99.90
8684;DHT22;4379;59.744;18.206;2023-08-01T08:04:20;19.30;99.90
8684;DHT22;4379;59.744;18.206;2023-08-01T08:06:47;19.40;99.90
8684;DHT22;4379;59.744;18.206;2023-08-01T08:09:15;19.50;99.90
8684;DHT22;4379;59.744;18.206;2023-08-01T08:11:42;20.60;99.90
8684;DHT22;4379;59.744;18.206;2023-08-01T08:14:10;21.30;99.90
8684;DHT22;4379;59.744;18.206;2023-08-01T08:16:38;22.10;99.90
8684;DHT22;4379;59.744;18.206;2023-08-01T08:19:07;22.50;99.90
8684;DHT22;4379;59.744;18.206;2023-08-01T08:21:34;21.70;99.90
8684;DHT22;4379;59.744;18.206;2023-08-01T08:24:02;20.50;99.90
8684;DHT22;4379;59.744;18.206;2023-08-01T08:26:29;21.10;99.90
8684;DHT22;4379;59.744;18.206;2023-08-01T08:28:58;21.60;99.90
8684;DHT22;4379;59.744;18.206;2023-08-01T08:31:26;21.70;99.90
8684;DHT22;4379;59.744;18.206;2023-08-01T08:33:54;21.70;99.90
8684;DHT22;4379;59.744;18.206;2023-08-01T08:36:21;21.20;99.90
8684;DHT22;4379;59.744;18.206;2023-08-01T08:38:49;20.60;99.90
8684;DHT22;4379;59.744;18.206;2023-08-01T08:41:21;21.00;99.90
8684;DHT22;4379;59.744;18.206;2023-08-01T08:43:49;21.30;99.90
8684;DHT22;4379;59.744;18.206;2023-08-01T08:46:17;22.10;99.90
8684;DHT22;4379;59.744;18.206;2023-08-01T08:48:46;22.50;99.90
8684;DHT22;4379;59.744;18.206;2023-08-01T08:51:14;22.50;99.90
8684;DHT22;4379;59.744;18.206;2023-08-01T08:53:45;22.00;99.90
8684;DHT22;4379;59.744;18.206;2023-08-01T08:56:14;22.50;99.90
8684;DHT22;4379;59.744;18.206;2023-08-01T08:58:42;22.40;99.90
8684;DHT22;4379;59.744;18.206;2023-08-01T09:01:11;22.20;99.90
8684;DHT22;4379;59.744;18.206;2023-08-01T09:03:39;21.60;99.90
8684;DHT22;4379;59.744;18.206;2023-08-01T09:06:15;20.70;99.90
8684;DHT22;4379;59.744;18.206;2023-08-01T09:11:27;19.70;99.90
8684;DHT22;4379;59.744;18.206;2023-08-01T09:13:55;19.90;99.90
8684;DHT22;4379;59.744;18.206;2023-08-01T09:16:22;20.10;99.90
8684;DHT22;4379;59.744;18.206;2023-08-01T09:18:51;20.10;99.90
8684;DHT22;4379;59.744;18.206;2023-08-01T09:21:22;19.50;99.90
8684;DHT22;4379;59.744;18.206;2023-08-01T09:23:50;19.40;99.90
8684;DHT22;4379;59.744;18.206;2023-08-01T09:26:19;19.90;99.90
8684;DHT22;4379;59.744;18.206;2023-08-01T09:28:56;20.20;99.90
8684;DHT22;4379;59.744;18.206;2023-08-01T09:31:38;19.80;99.90
8684;DHT22;4379;59.744;18.206;2023-08-01T09:34:18;20.20;99.90
8684;DHT22;4379;59.744;18.206;2023-08-01T09:36:46;20.20;99.90
8684;DHT22;4379;59.744;18.206;2023-08-01T09:39:21;20.10;99.90
8684;DHT22;4379;59.744;18.206;2023-08-01T09:41:59;19.30;99.90
8684;DHT22;4379;59.744;18.206;2023-08-01T09:44:28;19.20;99.90
8684;DHT22;4379;59.744;18.206;2023-08-01T09:47:03;19.60;99.90
8684;DHT22;4379;59.744;18.206;2023-08-01T09:49:31;19.90;99.90
8684;DHT22;4379;59.744;18.206;2023-08-01T09:51:59;19.70;99.90
8684;DHT22;4379;59.744;18.206;2023-08-01T09:54:28;19.80;99.90
8684;DHT22;4379;59.744;18.206;2023-08-01T09:56:56;20.00;99.90
8684;DHT22;4379;59.744;18.206;2023-08-01T09:59:25;20.30;99.90
8684;DHT22;4379;59.744;18.206;2023-08-01T10:01:54;20.90;99.90
8684;DHT22;4379;59.744;18.206;2023-08-01T10:04:32;21.40;99.90
8684;DHT22;4379;59.744;18.206;2023-08-01T10:07:08;21.60;99.90
8684;DHT22;4379;59.744;18.206;2023-08-01T10:09:39;21.50;99.90
8684;DHT22;4379;59.744;18.206;2023-08-01T10:12:08;21.40;99.90
8684;DHT22;4379;59.744;18.206;2023-08-01T10:14:37;22.00;99.90
8684;DHT22;4379;59.744;18.206;2023-08-01T10:17:06;22.00;99.90
8684;DHT22;4379;59.744;18.206;2023-08-01T10:19:34;21.80;99.90
8684;DHT22;4379;59.744;18.206;2023-08-01T10:22:03;21.40;99.90
8684;DHT22;4379;59.744;18.206;2023-08-01T10:24:31;20.90;99.90
8684;DHT22;4379;59.744;18.206;2023-08-01T10:27:19;21.10;99.90
8684;DHT22;4379;59.744;18.206;2023-08-01T10:30:01;21.50;99.90
8684;DHT22;4379;59.744;18.206;2023-08-01T10:32:38;22.00;99.90
8684;DHT22;4379;59.744;18.206;2023-08-01T10:35:06;21.10;99.90
8684;DHT22;4379;59.744;18.206;2023-08-01T10:37:43;20.60;99.90
8684;DHT22;4379;59.744;18.206;2023-08-01T10:40:12;20.30;99.90
8684;DHT22;4379;59.744;18.206;2023-08-01T10:42:44;20.10;99.90
8684;DHT22;4379;59.744;18.206;2023-08-01T10:45:22;20.10;99.90
8684;DHT22;4379;59.744;18.206;2023-08-01T10:47:51;20.60;99.90
8684;DHT22;4379;59.744;18.206;2023-08-01T10:50:18;20.90;99.90
8684;DHT22;4379;59.744;18.206;2023-08-01T10:52:46;20.80;99.90
8684;DHT22;4379;59.744;18.206;2023-08-01T10:55:14;20.50;99.90
8684;DHT22;4379;59.744;18.206;2023-08-01T10:57:48;20.20;99.90
8684;DHT22;4379;59.744;18.206;2023-08-01T11:00:17;20.00;99.90
8684;DHT22;4379;59.744;18.206;2023-08-01T11:02:50;20.30;99.90
8684;DHT22;4379;59.744;18.206;2023-08-01T11:05:22;20.30;99.90
8684;DHT22;4379;59.744;18.206;2023-08-01T11:07:55;19.90;99.90
8684;DHT22;4379;59.744;18.206;2023-08-01T11:10:30;20.00;99.90
8684;DHT22;4379;59.744;18.206;2023-08-01T11:12:59;19.90;99.90
8684;DHT22;4379;59.744;18.206;2023-08-01T11:15:27;19.80;99.90
8684;DHT22;4379;59.744;18.206;2023-08-01T11:17:55;19.90;99.90
8684;DHT22;4379;59.744;18.206;2023-08-01T11:20:24;20.20;99.90
8684;DHT22;4379;59.744;18.206;2023-08-01T11:22:58;20.60;99.90
8684;DHT22;4379;59.744;18.206;2023-08-01T11:25:41;20.90;99.90
8684;DHT22;4379;59.744;18.206;2023-08-01T11:28:17;20.70;99.90
8684;DHT22;4379;59.744;18.206;2023-08-01T11:30:44;20.80;99.90
8684;DHT22;4379;59.744;18.206;2023-08-01T11:33:20;20.80;99.90
8684;DHT22;4379;59.744;18.206;2023-08-01T11:35:56;20.40;99.90
8684;DHT22;4379;59.744;18.206;2023-08-01T11:38:30;21.20;99.90
8684;DHT22;4379;59.744;18.206;2023-08-01T11:41:01;21.60;99.90
8684;DHT22;4379;59.744;18.206;2023-08-01T11:43:42;21.90;99.90
8684;DHT22;4379;59.744;18.206;2023-08-01T11:46:10;21.80;99.90
8684;DHT22;4379;59.744;18.206;2023-08-01T11:48:37;21.80;99.90
8684;DHT22;4379;59.744;18.206;2023-08-01T11:51:06;21.70;99.90
8684;DHT22;4379;59.744;18.206;2023-08-01T11:53:33;22.00;99.90
8684;DHT22;4379;59.744;18.206;2023-08-01T11:56:06;21.60;99.90
8684;DHT22;4379;59.744;18.206;2023-08-01T11:58:36;21.50;99.90
8684;DHT22;4379;59.744;18.206;2023-08-01T12:01:12;21.50;99.90
8684;DHT22;4379;59.744;18.206;2023-08-01T12:06:17;21.20;99.90
8684;DHT22;4379;59.744;18.206;2023-08-01T12:08:46;21.20;99.90
8684;DHT22;4379;59.744;18.206;2023-08-01T12:11:41;21.20;99.90
8684;DHT22;4379;59.744;18.206;2023-08-01T12:14:09;21.50;99.90
8684;DHT22;4379;59.744;18.206;2023-08-01T12:16:38;21.80;99.90
8684;DHT22;4379;59.744;18.206;2023-08-01T12:19:09;21.40;99.90
8684;DHT22;4379;59.744;18.206;2023-08-01T12:21:37;21.70;99.90
8684;DHT22;4379;59.744;18.206;2023-08-01T12:24:05;22.30;99.90
8684;DHT22;4379;59.744;18.206;2023-08-01T12:26:32;22.80;99.90
8684;DHT22;4379;59.744;18.206;2023-08-01T12:29:00;22.50;99.90
8684;DHT22;4379;59.744;18.206;2023-08-01T12:31:27;22.50;99.90
8684;DHT22;4379;59.744;18.206;2023-08-01T12:33:56;22.10;99.90
8684;DHT22;4379;59.744;18.206;2023-08-01T12:36:24;21.80;99.90
8684;DHT22;4379;59.744;18.206;2023-08-01T12:38:51;21.40;99.90
8684;DHT22;4379;59.744;18.206;2023-08-01T12:41:20;21.00;99.90
8684;DHT22;4379;59.744;18.206;2023-08-01T12:43:47;20.50;99.90
8684;DHT22;4379;59.744;18.206;2023-08-01T12:46:14;20.40;99.90
8684;DHT22;4379;59.744;18.206;2023-08-01T12:48:43;20.40;99.90
8684;DHT22;4379;59.744;18.206;2023-08-01T12:51:10;20.80;99.90
8684;DHT22;4379;59.744;18.206;2023-08-01T12:53:38;21.10;99.90
8684;DHT22;4379;59.744;18.206;2023-08-01T12:56:07;20.70;99.90
8684;DHT22;4379;59.744;18.206;2023-08-01T12:58:34;20.40;99.90
8684;DHT22;4379;59.744;18.206;2023-08-01T13:01:03;20.40;99.90
8684;DHT22;4379;59.744;18.206;2023-08-01T13:03:33;20.60;99.90
8684;DHT22;4379;59.744;18.206;2023-08-01T13:06:01;21.20;99.90
8684;DHT22;4379;59.744;18.206;2023-08-01T13:08:29;20.80;99.90
8684;DHT22;4379;59.744;18.206;2023-08-01T13:10:57;21.00;99.90
8684;DHT22;4379;59.744;18.206;2023-08-01T13:13:26;20.70;99.90
8684;DHT22;4379;59.744;18.206;2023-08-01T13:15:56;20.30;99.90
8684;DHT22;4379;59.744;18.206;2023-08-01T13:18:24;20.30;99.90
8684;DHT22;4379;59.744;18.206;2023-08-01T13:20:52;20.40;99.90
8684;DHT22;4379;59.744;18.206;2023-08-01T13:23:19;20.50;99.90
8684;DHT22;4379;59.744;18.206;2023-08-01T13:25:48;20.50;99.90
8684;DHT22;4379;59.744;18.206;2023-08-01T13:28:16;20.80;99.90
8684;DHT22;4379;59.744;18.206;2023-08-01T13:30:44;21.20;99.90
8684;DHT22;4379;59.744;18.206;2023-08-01T13:33:11;21.20;99.90
8684;DHT22;4379;59.744;18.206;2023-08-01T13:35:39;21.40;99.90
8684;DHT22;4379;59.744;18.206;2023-08-01T13:38:07;21.00;99.90
8684;DHT22;4379;59.744;18.206;2023-08-01T13:40:34;20.30;99.90
8684;DHT22;4379;59.744;18.206;2023-08-01T13:43:02;20.10;99.90
8684;DHT22;4379;59.744;18.206;2023-08-01T13:45:30;20.30;99.90
8684;DHT22;4379;59.744;18.206;2023-08-01T13:47:59;20.30;99.90
8684;DHT22;4379;59.744;18.206;2023-08-01T13:50:29;20.30;99.90
8684;DHT22;4379;59.744;18.206;2023-08-01T13:52:57;20.20;99.90
8684;DHT22;4379;59.744;18.206;2023-08-01T13:55:25;20.30;99.90
8684;DHT22;4379;59.744;18.206;2023-08-01T13:57:52;19.90;99.90
8684;DHT22;4379;59.744;18.206;2023-08-01T14:00:20;20.00;99.90
8684;DHT22;4379;59.744;18.206;2023-08-01T14:02:49;20.00;99.90
8684;DHT22;4379;59.744;18.206;2023-08-01T14:05:18;19.90;99.90
8684;DHT22;4379;59.744;18.206;2023-08-01T14:07:46;19.70;99.90
8684;DHT22;4379;59.744;18.206;2023-08-01T14:10:14;19.70;99.90
8684;DHT22;4379;59.744;18.206;2023-08-01T14:12:42;19.80;99.90
8684;DHT22;4379;59.744;18.206;2023-08-01T14:15:10;20.00;99.90
8684;DHT22;4379;59.744;18.206;2023-08-01T14:17:38;20.40;99.90
8684;DHT22;4379;59.744;18.206;2023-08-01T14:20:07;20.40;99.90
8684;DHT22;4379;59.744;18.206;2023-08-01T14:22:35;20.40;99.90
8684;DHT22;4379;59.744;18.206;2023-08-01T14:25:03;20.20;99.90
8684;DHT22;4379;59.744;18.206;2023-08-01T14:27:31;20.10;99.90
8684;DHT22;4379;59.744;18.206;2023-08-01T14:29:58;20.40;99.90
8684;DHT22;4379;59.744;18.206;2023-08-01T14:32:25;20.90;99.90
8684;DHT22;4379;59.744;18.206;2023-08-01T14:34:54;20.80;99.90
8684;DHT22;4379;59.744;18.206;2023-08-01T14:37:22;20.70;99.90
8684;DHT22;4379;59.744;18.206;2023-08-01T14:39:51;20.50;99.90
8684;DHT22;4379;59.744;18.206;2023-08-01T14:42:19;20.60;99.90
8684;DHT22;4379;59.744;18.206;2023-08-01T14:44:54;20.80;99.90
8684;DHT22;4379;59.744;18.206;2023-08-01T14:47:22;20.70;99.90
8684;DHT22;4379;59.744;18.206;2023-08-01T14:49:49;20.30;99.90
8684;DHT22;4379;59.744;18.206;2023-08-01T14:52:17;19.80;99.90
8684;DHT22;4379;59.744;18.206;2023-08-01T14:54:51;19.80;99.90
8684;DHT22;4379;59.744;18.206;2023-08-01T14:57:18;20.00;99.90
8684;DHT22;4379;59.744;18.206;2023-08-01T14:59:46;20.00;99.90
8684;DHT22;4379;59.744;18.206;2023-08-01T15:02:14;20.10;99.90
8684;DHT22;4379;59.744;18.206;2023-08-01T15:04:42;19.90;99.90
8684;DHT22;4379;59.744;18.206;2023-08-01T15:07:09;19.60;99.90
8684;DHT22;4379;59.744;18.206;2023-08-01T15:09:37;19.80;99.90
8684;DHT22;4379;59.744;18.206;2023-08-01T15:12:04;19.80;99.90
8684;DHT22;4379;59.744;18.206;2023-08-01T15:14:32;19.80;99.90
8684;DHT22;4379;59.744;18.206;2023-08-01T15:17:00;19.90;99.90
8684;DHT22;4379;59.744;18.206;2023-08-01T15:19:28;19.90;99.90
8684;DHT22;4379;59.744;18.206;2023-08-01T15:21:56;19.80;99.90
8684;DHT22;4379;59.744;18.206;2023-08-01T15:24:24;20.00;99.90
8684;DHT22;4379;59.744;18.206;2023-08-01T15:26:52;19.90;99.90
8684;DHT22;4379;59.744;18.206;2023-08-01T15:29:19;19.70;99.90
8684;DHT22;4379;59.744;18.206;2023-08-01T15:31:49;19.30;99.90
8684;DHT22;4379;59.744;18.206;2023-08-01T15:34:18;19.30;99.90
8684;DHT22;4379;59.744;18.206;2023-08-01T15:36:47;19.40;99.90
8684;DHT22;4379;59.744;18.206;2023-08-01T15:39:15;19.50;99.90
8684;DHT22;4379;59.744;18.206;2023-08-01T15:41:43;19.60;99.90
8684;DHT22;4379;59.744;18.206;2023-08-01T15:44:11;19.60;99.90
8684;DHT22;4379;59.744;18.206;2023-08-01T15:46:38;19.70;99.90
8684;DHT22;4379;59.744;18.206;2023-08-01T15:49:07;19.80;99.90
8684;DHT22;4379;59.744;18.206;2023-08-01T15:51:35;19.70;99.90
8684;DHT22;4379;59.744;18.206;2023-08-01T15:54:02;19.90;99.90
8684;DHT22;4379;59.744;18.206;2023-08-01T15:56:30;20.30;99.90
8684;DHT22;4379;59.744;18.206;2023-08-01T15:58:59;20.30;99.90
8684;DHT22;4379;59.744;18.206;2023-08-01T16:01:26;20.10;99.90
8684;DHT22;4379;59.744;18.206;2023-08-01T16:03:54;20.20;99.90